Time;durP1;ratioP1;P1;durP2;ratioP2;P2;SDS_P1;SDS_P2;PMS_P1;PMS_P2;Temp;Humidity;BMP_temperature;BMP_pressure;BME280_temperature;BME280_humidity;BME280_pressure;Samples;Min_cycle;Max_cycle;Signal;HPM_P1;HPM_P2
2022/06/27 00:01:37;;;;;;;5.22;3.42;;;;;;;21.34;69.16;99506.53;1765398;79;20892;-65
2022/06/27 00:04:04;;;;;;;3.80;3.00;;;;;;;21.20;69.27;99509.72;1748515;81;20979;-69
2022/06/27 00:06:31;;;;;;;4.12;3.72;;;;;;;21.20;69.27;99509.72;1744711;81;21331;-69
2022/06/27 00:08:59;;;;;;;3.60;3.30;;;;;;;21.13;69.72;99512.56;1752094;81;20882;-67
2022/06/27 00:11:25;;;;;;;6.37;3.65;;;;;;;21.11;70.01;99510.64;1754640;79;20967;-67
2022/06/27 00:13:52;;;;;;;6.80;3.58;;;;;;;21.11;70.41;99511.16;1735023;81;20939;-66
2022/06/27 00:16:19;;;;;;;6.00;3.65;;;;;;;21.12;70.59;99511.46;1732539;81;20882;-66
2022/06/27 00:18:45;;;;;;;5.22;4.00;;;;;;;21.15;70.81;99504.20;1765245;81;21232;-65
2022/06/27 00:21:12;;;;;;;3.75;3.45;;;;;;;21.20;70.94;99517.83;1741559;81;20970;-67
2022/06/27 00:23:39;;;;;;;6.37;3.42;;;;;;;21.20;70.94;99517.83;1734526;81;21469;-67
2022/06/27 00:26:06;;;;;;;4.75;3.42;;;;;;;21.21;70.67;99524.38;1732443;81;21450;-67
2022/06/27 00:28:33;;;;;;;4.15;3.10;;;;;;;21.19;70.47;99520.27;1760083;81;21018;-67
2022/06/27 00:31:00;;;;;;;5.47;3.45;;;;;;;21.12;70.36;99523.63;1764122;79;21137;-68
2022/06/27 00:33:26;;;;;;;3.87;3.47;;;;;;;21.02;70.49;99524.18;1768617;80;20899;-66
2022/06/27 00:35:53;;;;;;;3.67;3.37;;;;;;;20.98;70.60;99515.44;1766503;79;20977;-66
2022/06/27 00:38:20;;;;;;;4.28;3.83;;;;;;;20.94;70.71;99519.95;1756755;80;20921;-68
2022/06/27 00:40:47;;;;;;;4.78;3.17;;;;;;;20.92;70.89;99515.84;1766484;80;20982;-66
2022/06/27 00:43:13;;;;;;;3.85;3.25;;;;;;;20.92;71.16;99522.08;1736676;80;21307;-68
2022/06/27 00:45:40;;;;;;;3.62;3.25;;;;;;;20.92;71.23;99519.38;1771650;79;21024;-66
2022/06/27 00:48:07;;;;;;;5.10;3.42;;;;;;;20.89;71.26;99524.42;1760399;80;21045;-68
2022/06/27 00:50:34;;;;;;;4.20;3.80;;;;;;;20.86;71.44;99521.66;1783289;80;20977;-66
2022/06/27 00:53:01;;;;;;;4.12;3.50;;;;;;;20.85;71.56;99521.91;1764644;79;20991;-69
2022/06/27 00:55:29;;;;;;;5.83;4.03;;;;;;;20.78;72.01;99511.72;1779949;78;21125;-69
2022/06/27 00:57:56;;;;;;;4.28;3.87;;;;;;;20.78;72.01;99511.72;1778704;78;20885;-67
2022/06/27 01:00:23;;;;;;;6.12;3.58;;;;;;;20.78;71.84;99521.19;1759118;78;22373;-67
2022/06/27 01:02:49;;;;;;;5.25;4.22;;;;;;;20.78;71.92;99526.59;1747454;81;21004;-66
2022/06/27 01:05:16;;;;;;;5.67;3.70;;;;;;;20.79;72.12;99527.72;1762549;80;21441;-65
2022/06/27 01:07:42;;;;;;;5.35;3.72;;;;;;;20.80;72.18;99528.03;1772702;80;22116;-67
2022/06/27 01:10:09;;;;;;;5.17;4.15;;;;;;;20.79;71.83;99526.38;1759265;80;20899;-66
2022/06/27 01:12:40;;;;;;;4.05;3.65;;;;;;;20.76;71.75;99526.84;1774774;80;20937;-70
2022/06/27 01:15:10;;;;;;;4.03;3.58;;;;;;;20.75;72.04;99527.88;1756635;80;20941;-67
2022/06/27 01:17:37;;;;;;;10.85;4.35;;;;;;;20.75;71.93;99534.64;1756670;80;21028;-69
2022/06/27 01:20:05;;;;;;;4.58;4.17;;;;;;;20.72;71.88;99528.37;1756591;80;22226;-69
2022/06/27 01:22:33;;;;;;;6.47;4.70;;;;;;;20.72;72.20;99533.78;1784866;80;20911;-66
2022/06/27 01:25:00;;;;;;;3.67;3.37;;;;;;;20.72;72.12;99525.67;1787727;80;20954;-67
2022/06/27 01:27:26;;;;;;;5.47;3.33;;;;;;;20.72;72.08;99525.67;1759412;80;20929;-69
2022/06/27 01:29:53;;;;;;;4.37;3.33;;;;;;;20.69;71.79;99532.06;1763494;80;20962;-69
2022/06/27 01:32:21;;;;;;;3.33;3.02;;;;;;;20.61;71.62;99531.05;1761163;80;21260;-70
2022/06/27 01:34:50;;;;;;;3.60;3.20;;;;;;;20.53;71.63;99529.52;1764445;80;20954;-67
2022/06/27 01:37:17;;;;;;;3.95;3.60;;;;;;;20.46;71.69;99533.39;1770318;79;20929;-67
2022/06/27 01:39:43;;;;;;;5.03;3.60;;;;;;;20.39;71.92;99534.03;1763167;80;20897;-66
2022/06/27 01:42:10;;;;;;;5.20;3.92;;;;;;;20.38;72.36;99536.43;1763554;80;21088;-67
2022/06/27 01:44:37;;;;;;;5.35;4.85;;;;;;;20.39;72.54;99533.48;1778597;80;21105;-68
2022/06/27 01:47:08;;;;;;;6.40;5.03;;;;;;;20.43;72.83;99536.03;1756578;80;20981;-68
2022/06/27 01:49:37;;;;;;;5.70;5.05;;;;;;;20.46;72.97;99536.92;1776693;80;21001;-69
2022/06/27 01:52:06;;;;;;;5.33;4.80;;;;;;;20.49;72.88;99541.84;1776802;80;22357;-66
2022/06/27 01:54:34;;;;;;;7.78;5.70;;;;;;;20.51;72.79;99540.27;1766759;80;20972;-68
2022/06/27 01:57:01;;;;;;;4.08;3.67;;;;;;;20.53;72.99;99540.86;1756514;80;21215;-68
2022/06/27 01:59:29;;;;;;;7.25;4.92;;;;;;;20.53;73.11;99540.33;1756567;80;20954;-66
2022/06/27 02:01:58;;;;;;;6.15;4.42;;;;;;;20.51;73.06;99546.50;1763627;80;20929;-68
2022/06/27 02:04:26;;;;;;;5.65;5.12;;;;;;;20.53;73.31;99544.39;1765759;80;20954;-65
2022/06/27 02:06:53;;;;;;;6.33;4.40;;;;;;;20.55;73.43;99542.27;1756603;80;20937;-68
2022/06/27 02:09:20;;;;;;;6.25;5.08;;;;;;;20.54;73.52;99543.34;1756739;80;21205;-67
2022/06/27 02:11:49;;;;;;;5.60;5.10;;;;;;;20.53;73.67;99540.33;1768040;80;21036;-67
2022/06/27 02:14:16;;;;;;;7.58;5.58;;;;;;;20.53;73.81;99543.04;1775801;80;20921;-65
2022/06/27 02:16:43;;;;;;;6.28;4.65;;;;;;;20.53;74.08;99544.39;1756568;80;20972;-67
2022/06/27 02:19:15;;;;;;;7.10;5.20;;;;;;;20.56;74.11;99542.58;1765626;80;21082;-66
2022/06/27 02:21:41;;;;;;;7.95;4.72;;;;;;;20.57;73.99;99546.11;1774712;80;21228;-67
2022/06/27 02:24:09;;;;;;;5.97;5.37;;;;;;;20.59;73.97;99548.05;1787647;79;20974;-67
2022/06/27 02:26:36;;;;;;;5.15;4.47;;;;;;;20.61;74.10;99550.81;1774413;80;20930;-67
2022/06/27 02:29:03;;;;;;;6.40;5.20;;;;;;;20.65;73.98;99544.42;1782689;80;20989;-66
2022/06/27 02:31:33;;;;;;;6.95;4.97;;;;;;;20.66;74.11;99556.33;1770150;79;20962;-69
2022/06/27 02:34:01;;;;;;;4.55;3.87;;;;;;;20.68;73.91;99554.22;1768464;79;20921;-66
2022/06/27 02:36:36;;;;;;;6.42;4.45;;;;;;;20.69;73.44;99565.33;1763755;80;20883;-66
2022/06/27 02:39:03;;;;;;;6.22;4.22;;;;;;;20.69;73.31;99566.69;1787925;80;20954;-66
2022/06/27 02:41:33;;;;;;;6.15;4.62;;;;;;;20.69;73.36;99568.56;1762871;80;20937;-69
2022/06/27 02:44:08;;;;;;;6.50;4.50;;;;;;;20.69;73.56;99565.33;1773558;80;21010;-69
2022/06/27 02:46:34;;;;;;;7.97;4.05;;;;;;;20.74;73.73;99570.03;1781751;80;21303;-67
2022/06/27 02:49:01;;;;;;;6.15;5.20;;;;;;;20.79;73.21;99566.09;1756638;80;20972;-66
2022/06/27 02:51:30;;;;;;;7.67;5.42;;;;;;;20.82;73.26;99568.34;1758445;80;20883;-68
2022/06/27 02:54:17;;;;;;;7.22;4.62;;;;;;;20.85;73.44;99570.58;1756761;80;20918;-66
2022/06/27 02:56:59;;;;;;;8.90;4.30;;;;;;;20.90;73.44;99567.47;1754697;80;20930;-67
2022/06/27 02:59:35;;;;;;;4.67;4.17;;;;;;;20.98;73.25;99571.70;1732953;81;21168;-66
2022/06/27 03:02:03;;;;;;;5.37;4.10;;;;;;;21.04;73.10;99574.00;1777503;80;20945;-67
2022/06/27 03:04:32;;;;;;;7.40;4.37;;;;;;;21.10;72.98;99573.89;1753053;80;21463;-67
2022/06/27 03:06:58;;;;;;;4.78;4.33;;;;;;;21.17;72.94;99573.78;1756609;80;21452;-67
2022/06/27 03:09:25;;;;;;;5.45;4.78;;;;;;;21.27;72.80;99578.06;1756762;80;20881;-70
2022/06/27 03:11:52;;;;;;;8.10;4.45;;;;;;;21.35;72.70;99578.50;1778938;80;21198;-68
2022/06/27 03:14:19;;;;;;;5.50;4.95;;;;;;;21.46;72.50;99585.80;1768298;80;20911;-67
2022/06/27 03:16:47;;;;;;;8.58;5.42;;;;;;;21.61;72.11;99584.48;1765217;79;21025;-67
2022/06/27 03:19:14;;;;;;;5.15;4.45;;;;;;;21.76;71.68;99582.08;1756751;80;20969;-67
2022/06/27 03:21:46;;;;;;;7.50;5.12;;;;;;;21.89;71.04;99577.25;1765413;80;20860;-67
2022/06/27 03:24:13;;;;;;;49.15;43.15;;;;;;;22.07;70.61;99590.61;1744033;81;21478;-67
2022/06/27 03:26:41;;;;;;;17.95;16.12;;;;;;;22.27;70.19;99581.19;1756734;80;20910;-67
2022/06/27 03:29:09;;;;;;;11.78;9.03;;;;;;;22.48;69.75;99583.20;1785356;80;21576;-67
2022/06/27 03:31:38;;;;;;;24.55;22.17;;;;;;;22.69;69.00;99583.34;1768139;80;21057;-68
2022/06/27 03:34:06;;;;;;;14.50;13.15;;;;;;;22.92;68.16;99582.87;1770740;81;20903;-70
2022/06/27 03:36:34;;;;;;;9.40;8.50;;;;;;;23.12;67.41;99581.31;1770318;80;21801;-65
2022/06/27 03:39:01;;;;;;;6.87;6.20;;;;;;;23.32;66.50;99580.77;1749770;81;21586;-67
2022/06/27 03:41:27;;;;;;;5.55;5.00;;;;;;;23.52;65.66;99582.95;1754614;81;21439;-66
2022/06/27 03:43:54;;;;;;;5.15;4.65;;;;;;;23.78;64.99;99587.64;1768464;79;21480;-66
2022/06/27 03:46:20;;;;;;;5.85;4.25;;;;;;;24.16;64.16;99586.23;1743883;80;21512;-69
2022/06/27 03:51:35;;;;;;;10.40;9.13;;;;;;;25.08;61.46;99576.46;1740606;80;21488;-68
2022/06/27 03:54:02;;;;;;;7.40;6.70;;;;;;;25.58;60.04;99579.48;1748516;81;20928;-71
2022/06/27 03:56:29;;;;;;;6.25;5.45;;;;;;;26.02;59.00;99578.55;1744519;81;20871;-66
2022/06/27 03:58:56;;;;;;;5.10;4.55;;;;;;;26.40;57.73;99577.86;1758256;79;20922;-68
2022/06/27 04:01:22;;;;;;;4.12;3.65;;;;;;;26.80;56.57;99576.56;1738971;81;21213;-67
2022/06/27 04:03:49;;;;;;;3.83;3.58;;;;;;;27.21;55.56;99581.42;1733239;81;21005;-70
2022/06/27 04:06:18;;;;;;;5.00;4.22;;;;;;;27.59;54.17;99583.52;1772593;79;20935;-69
2022/06/27 04:08:44;;;;;;;6.90;4.47;;;;;;;27.93;53.09;99585.02;1735826;81;20927;-68
2022/06/27 04:11:11;;;;;;;4.58;4.17;;;;;;;28.16;52.01;99575.63;1747197;81;20883;-68
2022/06/27 04:13:40;;;;;;;3.65;3.15;;;;;;;28.16;51.22;99579.73;1801568;79;21153;-67
2022/06/27 04:16:25;;;;;;;3.35;3.00;;;;;;;28.06;50.92;99586.62;1747763;81;20875;-66
2022/06/27 04:19:04;;;;;;;5.75;3.40;;;;;;;28.08;50.60;99580.86;1772383;81;20892;-67
2022/06/27 04:21:49;;;;;;;4.47;3.58;;;;;;;28.09;50.57;99582.52;1770546;79;20895;-66
2022/06/27 04:24:17;;;;;;;19.70;18.05;;;;;;;28.07;50.62;99578.70;1758878;79;20875;-67
2022/06/27 04:26:46;;;;;;;8.73;5.80;;;;;;;28.06;50.86;99581.70;1757502;80;21133;-69
2022/06/27 04:29:13;;;;;;;4.37;3.42;;;;;;;27.97;50.12;99579.27;1744241;81;20948;-67
2022/06/27 04:31:40;;;;;;;4.62;3.20;;;;;;;27.77;49.95;99579.34;1757098;80;21477;-66
2022/06/27 04:34:06;;;;;;;4.42;2.92;;;;;;;27.62;50.31;99584.34;1756658;80;20942;-68
2022/06/27 04:36:35;;;;;;;3.50;3.20;;;;;;;27.56;50.32;99578.06;1783752;80;20969;-67
2022/06/27 04:39:03;;;;;;;3.27;2.87;;;;;;;27.58;50.47;99577.23;1762986;80;21452;-67
2022/06/27 04:41:38;;;;;;;5.03;3.20;;;;;;;27.75;50.17;99585.11;1766119;80;20933;-66
2022/06/27 04:44:04;;;;;;;5.92;2.95;;;;;;;28.01;49.54;99581.19;1756668;80;20922;-68
2022/06/27 04:46:31;;;;;;;4.00;2.67;;;;;;;28.13;49.20;99587.70;1756794;80;20969;-67
2022/06/27 04:49:18;;;;;;;4.33;2.80;;;;;;;28.29;49.33;99586.48;1765886;80;20909;-70
2022/06/27 04:51:49;;;;;;;2.98;2.67;;;;;;;28.48;48.97;99583.91;1769004;80;21129;-68
2022/06/27 04:54:16;;;;;;;4.55;3.10;;;;;;;28.46;48.72;99586.11;1756390;80;21033;-67
2022/06/27 04:56:43;;;;;;;3.90;3.50;;;;;;;28.49;48.38;99589.66;1778610;80;20944;-68
2022/06/27 04:59:10;;;;;;;5.65;2.95;;;;;;;28.73;48.20;99586.50;1764666;80;21060;-68
2022/06/27 05:01:38;;;;;;;4.47;3.45;;;;;;;29.16;47.25;99586.91;1764031;80;20869;-68
2022/06/27 05:04:06;;;;;;;9.05;8.18;;;;;;;29.55;46.65;99590.09;1756422;80;21264;-68
2022/06/27 05:06:35;;;;;;;5.47;3.90;;;;;;;29.71;45.89;99586.89;1756742;80;20971;-68
2022/06/27 05:09:02;;;;;;;3.25;2.60;;;;;;;29.74;45.66;99584.94;1769037;80;20923;-68
2022/06/27 05:11:30;;;;;;;4.47;2.60;;;;;;;29.82;45.17;99588.98;1741843;80;20930;-68
2022/06/27 05:13:57;;;;;;;3.50;2.42;;;;;;;30.04;44.45;99591.14;1776346;80;20922;-69
2022/06/27 05:16:25;;;;;;;3.02;2.35;;;;;;;30.41;43.49;99585.71;1759652;80;21241;-68
2022/06/27 05:18:53;;;;;;;9.73;2.85;;;;;;;30.65;42.45;99585.62;1783431;79;20888;-65
2022/06/27 05:21:19;;;;;;;3.35;2.65;;;;;;;30.55;42.32;99587.42;1783168;80;20880;-64
2022/06/27 05:23:46;;;;;;;2.87;2.62;;;;;;;30.34;42.43;99598.97;1774155;79;20891;-64
2022/06/27 05:26:13;;;;;;;7.95;2.67;;;;;;;30.13;42.48;99594.33;1771148;80;21082;-64
2022/06/27 05:28:40;;;;;;;5.58;2.50;;;;;;;30.02;42.77;99596.11;1785886;80;21200;-64
2022/06/27 05:31:09;;;;;;;2.60;2.40;;;;;;;29.90;42.55;99594.61;1782905;80;20872;-67
2022/06/27 05:33:37;;;;;;;4.33;3.12;;;;;;;29.94;42.41;99598.41;1755980;79;20963;-68
2022/06/27 05:36:06;;;;;;;5.95;2.90;;;;;;;30.18;42.31;99595.63;1743764;81;20924;-68
2022/06/27 05:38:33;;;;;;;2.50;2.30;;;;;;;30.40;42.14;99589.00;1768498;79;20979;-68
2022/06/27 05:41:00;;;;;;;5.15;2.30;;;;;;;30.61;41.94;99590.88;1769139;81;21244;-66
2022/06/27 05:43:27;;;;;;;6.20;2.40;;;;;;;30.84;41.72;99596.02;1765472;81;21002;-68
2022/06/27 05:45:54;;;;;;;6.45;2.62;;;;;;;31.20;41.26;99599.81;1773157;79;20986;-69
2022/06/27 05:48:23;;;;;;;7.87;2.70;;;;;;;31.69;40.42;99599.98;1747873;79;21522;-69
2022/06/27 05:50:56;;;;;;;3.50;2.40;;;;;;;32.44;39.05;99606.91;1737225;81;20910;-70
2022/06/27 05:53:24;;;;;;;3.72;2.90;;;;;;;32.86;37.21;99599.03;1744600;79;21239;-68
2022/06/27 05:55:51;;;;;;;3.58;2.98;;;;;;;32.95;36.63;99605.98;1747195;79;20951;-69
2022/06/27 05:58:18;;;;;;;3.22;2.92;;;;;;;33.01;36.24;99610.22;1767935;81;21016;-69
2022/06/27 06:00:46;;;;;;;3.58;2.95;;;;;;;33.44;36.07;99605.80;1782059;79;21051;-68
2022/06/27 06:03:13;;;;;;;5.80;2.72;;;;;;;34.39;34.75;99602.77;1753983;79;21086;-66
2022/06/27 06:05:41;;;;;;;3.33;3.02;;;;;;;35.42;33.58;99604.63;1773422;79;21268;-68
2022/06/27 06:08:08;;;;;;;3.45;2.83;;;;;;;36.28;31.91;99602.26;1760236;80;20877;-68
2022/06/27 06:10:35;;;;;;;4.15;2.65;;;;;;;36.92;30.79;99605.50;1753504;79;21456;-69
2022/06/27 06:13:03;;;;;;;2.47;2.22;;;;;;;37.69;30.29;99602.70;1754740;79;21524;-71
2022/06/27 06:15:31;;;;;;;3.12;2.40;;;;;;;38.51;29.43;99594.19;1772376;81;21018;-68
2022/06/27 06:18:03;;;;;;;2.65;2.17;;;;;;;39.25;28.16;99595.73;1732469;81;21228;-70
2022/06/27 06:20:31;;;;;;;2.10;1.95;;;;;;;39.89;27.08;99591.18;1755509;81;21425;-68
2022/06/27 06:22:59;;;;;;;3.55;2.08;;;;;;;40.43;26.29;99594.62;1741297;81;20875;-69
2022/06/27 06:25:27;;;;;;;2.27;2.02;;;;;;;40.83;25.56;99596.46;1769482;79;20836;-70
2022/06/27 06:28:01;;;;;;;2.47;1.87;;;;;;;41.27;24.65;99600.52;1758053;79;21562;-69
2022/06/27 06:30:30;;;;;;;2.47;1.72;;;;;;;41.30;23.92;99605.16;1738226;81;21796;-70
2022/06/27 06:33:04;;;;;;;6.50;1.87;;;;;;;41.27;23.79;99598.34;1776359;80;20850;-69
2022/06/27 06:35:30;;;;;;;2.15;1.90;;;;;;;41.67;23.33;99595.05;1775365;80;20867;-69
2022/06/27 06:37:58;;;;;;;1.80;1.70;;;;;;;41.64;22.68;99595.82;1764011;79;21023;-68
2022/06/27 06:40:27;;;;;;;2.17;1.75;;;;;;;41.51;22.88;99596.58;1779229;80;21587;-75
2022/06/27 06:42:55;;;;;;;1.80;1.70;;;;;;;41.44;22.26;99595.66;1773231;80;21131;-73
2022/06/27 06:45:26;;;;;;;3.05;1.50;;;;;;;40.92;22.31;99594.30;1742321;79;20839;-73
2022/06/27 06:47:55;;;;;;;3.67;1.85;;;;;;;40.41;23.16;99592.80;1786288;79;21528;-71
2022/06/27 06:50:23;;;;;;;2.02;1.82;;;;;;;40.44;23.15;99592.06;1777820;80;20927;-71
2022/06/27 06:52:50;;;;;;;2.10;1.90;;;;;;;40.47;22.89;99595.52;1772316;78;21017;-69
2022/06/27 06:55:22;;;;;;;5.70;1.50;;;;;;;40.35;22.86;99592.85;1784329;80;21518;-71
2022/06/27 06:57:49;;;;;;;2.83;1.70;;;;;;;40.32;22.42;99598.57;1771220;79;20917;-73
2022/06/27 07:00:19;;;;;;;2.22;1.95;;;;;;;39.92;22.97;99598.81;1771746;78;20929;-74
2022/06/27 07:02:48;;;;;;;2.87;1.92;;;;;;;39.85;23.35;99597.84;1787678;80;20950;-71
2022/06/27 07:05:16;;;;;;;1.65;1.55;;;;;;;40.15;23.20;99608.75;1778365;80;20957;-73
2022/06/27 07:07:42;;;;;;;1.80;1.70;;;;;;;40.39;22.89;99602.89;1786172;80;21147;-72
2022/06/27 07:10:11;;;;;;;1.92;1.67;;;;;;;40.68;22.58;99598.75;1764732;80;20976;-71
2022/06/27 07:12:38;;;;;;;3.85;1.62;;;;;;;40.90;22.05;99602.81;1759325;80;20886;-71
2022/06/27 07:15:09;;;;;;;2.67;1.98;;;;;;;40.95;21.80;99603.91;1781826;80;20883;-70
2022/06/27 07:17:44;;;;;;;3.60;2.40;;;;;;;40.92;22.38;99613.00;1779494;79;20969;-70
2022/06/27 07:20:11;;;;;;;1.95;1.82;;;;;;;40.91;22.31;99603.05;1759139;80;21221;-69
2022/06/27 07:22:39;;;;;;;3.27;1.70;;;;;;;41.19;22.08;99608.57;1759181;80;20930;-70
2022/06/27 07:25:06;;;;;;;3.75;1.85;;;;;;;41.27;21.95;99614.47;1759108;80;20930;-71
2022/06/27 07:27:34;;;;;;;5.20;1.82;;;;;;;41.34;21.70;99619.42;1781068;80;20922;-70
2022/06/27 07:30:06;;;;;;;3.55;2.05;;;;;;;41.25;21.91;99616.02;1759176;80;20976;-72
2022/06/27 07:32:33;;;;;;;1.60;1.50;;;;;;;41.40;22.06;99617.13;1776696;79;21121;-71
2022/06/27 07:35:00;;;;;;;7.12;2.37;;;;;;;41.55;21.98;99612.01;1732356;81;20931;-70
2022/06/27 07:37:27;;;;;;;4.35;1.60;;;;;;;41.65;21.97;99615.56;1732442;81;20940;-69
2022/06/27 07:39:54;;;;;;;1.87;1.77;;;;;;;41.68;21.14;99627.39;1732359;79;20927;-71
2022/06/27 07:42:21;;;;;;;4.25;1.70;;;;;;;41.14;21.16;99620.63;1736090;82;21143;-69
2022/06/27 07:44:48;;;;;;;2.08;1.72;;;;;;;40.86;21.97;99616.64;1733382;81;21117;-71
2022/06/27 07:47:14;;;;;;;1.82;1.70;;;;;;;41.26;21.59;99618.46;1732327;81;20915;-69
2022/06/27 07:49:41;;;;;;;1.95;1.67;;;;;;;41.38;21.26;99623.07;1732297;81;21013;-68
2022/06/27 07:52:07;;;;;;;2.62;1.67;;;;;;;41.10;22.11;99610.78;1747751;81;20919;-68
2022/06/27 07:54:34;;;;;;;3.02;1.70;;;;;;;41.15;21.61;99620.23;1773916;81;20983;-69
2022/06/27 07:57:02;;;;;;;1.45;1.35;;;;;;;41.30;21.23;99626.09;1732903;81;21232;-70
2022/06/27 07:59:28;;;;;;;1.95;1.82;;;;;;;41.42;21.21;99624.54;1757165;81;20836;-69
2022/06/27 08:01:55;;;;;;;2.40;1.50;;;;;;;41.26;21.49;99626.02;1765598;79;20971;-70
2022/06/27 08:04:23;;;;;;;3.83;1.50;;;;;;;41.27;20.97;99626.25;1732573;81;20982;-69
2022/06/27 08:06:51;;;;;;;2.62;1.40;;;;;;;40.74;21.65;99620.19;1732322;81;20883;-73
2022/06/27 08:09:21;;;;;;;4.17;1.87;;;;;;;40.60;21.38;99624.28;1732420;81;21238;-72
2022/06/27 08:11:48;;;;;;;3.35;1.52;;;;;;;40.73;21.19;99620.77;1732309;81;21054;-70
2022/06/27 08:14:17;;;;;;;10.40;1.92;;;;;;;40.98;21.14;99620.72;1732500;81;21460;-70
2022/06/27 08:16:46;;;;;;;2.02;1.75;;;;;;;40.89;21.61;99624.89;1761382;81;20967;-70
2022/06/27 08:19:13;;;;;;;3.45;1.77;;;;;;;40.93;21.17;99618.81;1739722;81;21500;-72
2022/06/27 08:21:41;;;;;;;1.42;1.32;;;;;;;40.93;20.60;99631.37;1732328;81;21575;-69
2022/06/27 08:24:09;;;;;;;2.33;1.57;;;;;;;40.18;21.27;99628.89;1732266;81;20915;-70
2022/06/27 08:26:36;;;;;;;1.98;1.30;;;;;;;39.21;22.46;99624.62;1756190;81;20848;-72
2022/06/27 08:29:05;;;;;;;6.08;1.90;;;;;;;39.39;22.98;99616.98;1773905;81;20935;-71
2022/06/27 08:31:32;;;;;;;1.60;1.50;;;;;;;40.02;22.66;99628.89;1756725;79;20963;-71
2022/06/27 08:34:01;;;;;;;1.50;1.40;;;;;;;39.54;22.54;99625.09;1754403;80;21738;-74
2022/06/27 08:36:33;;;;;;;2.55;1.67;;;;;;;39.39;22.95;99620.34;1758951;80;20869;-71
2022/06/27 08:39:01;;;;;;;3.58;1.80;;;;;;;39.97;22.59;99620.03;1759267;80;21016;-70
2022/06/27 08:41:28;;;;;;;1.50;1.40;;;;;;;40.52;22.07;99618.34;1759067;80;21458;-71
2022/06/27 08:44:00;;;;;;;2.60;1.98;;;;;;;40.60;21.27;99613.72;1759238;80;21466;-72
2022/06/27 08:46:28;;;;;;;1.60;1.50;;;;;;;40.93;21.22;99612.66;1763330;80;21129;-70
2022/06/27 08:48:55;;;;;;;3.33;1.40;;;;;;;40.93;21.17;99615.45;1776300;79;20969;-72
2022/06/27 08:51:22;;;;;;;2.42;1.72;;;;;;;41.46;20.85;99616.44;1781048;80;20955;-71
2022/06/27 08:53:53;;;;;;;4.10;1.50;;;;;;;42.05;20.30;99609.45;1770659;80;20940;-71
2022/06/27 08:56:20;;;;;;;1.65;1.52;;;;;;;42.63;19.73;99607.11;1768424;79;20925;-71
2022/06/27 08:58:47;;;;;;;1.60;1.50;;;;;;;42.91;19.45;99611.64;1769006;80;21264;-69
2022/06/27 09:01:19;;;;;;;1.87;1.77;;;;;;;42.50;19.78;99618.30;1790311;79;20954;-70
2022/06/27 09:04:03;;;;;;;2.75;1.62;;;;;;;41.53;20.59;99610.19;1768281;80;20880;-71
2022/06/27 09:06:33;;;;;;;3.00;1.50;;;;;;;40.31;21.51;99622.63;1768804;79;21436;-71
2022/06/27 09:09:05;;;;;;;2.47;1.57;;;;;;;39.63;22.26;99617.42;1778026;80;21488;-71
2022/06/27 09:11:37;;;;;;;6.87;1.52;;;;;;;40.12;22.23;99618.41;1769628;79;21077;-70
2022/06/27 09:14:05;;;;;;;1.85;1.35;;;;;;;39.32;22.59;99620.94;1768193;80;20925;-69
2022/06/27 09:16:33;;;;;;;1.37;1.27;;;;;;;37.95;24.16;99625.16;1778312;80;20958;-71
2022/06/27 09:18:59;;;;;;;6.12;1.90;;;;;;;37.68;24.55;99615.52;1761044;80;20941;-70
2022/06/27 09:21:27;;;;;;;4.67;1.77;;;;;;;37.90;24.66;99615.67;1775992;80;20910;-70
2022/06/27 09:23:58;;;;;;;1.72;1.60;;;;;;;37.82;24.69;99617.95;1768243;79;21537;-71
2022/06/27 09:26:32;;;;;;;1.92;1.40;;;;;;;36.76;25.78;99619.75;1775059;80;20973;-69
2022/06/27 09:29:09;;;;;;;6.60;2.05;;;;;;;35.60;27.06;99620.86;1759102;80;21605;-70
2022/06/27 09:31:45;;;;;;;4.05;1.50;;;;;;;35.38;28.13;99607.27;1759016;80;20895;-70
2022/06/27 09:34:24;;;;;;;3.30;1.40;;;;;;;36.98;26.19;99609.69;1760744;80;21016;-71
2022/06/27 09:36:55;;;;;;;4.45;1.35;;;;;;;38.61;24.41;99607.58;1771337;80;21399;-71
2022/06/27 09:39:29;;;;;;;3.42;1.72;;;;;;;40.13;22.81;99607.50;1784172;80;21552;-71
2022/06/27 09:42:08;;;;;;;1.87;1.67;;;;;;;40.52;21.94;99600.80;1773715;80;20847;-70
2022/06/27 09:44:41;;;;;;;2.45;1.47;;;;;;;40.25;22.18;99597.03;1768766;80;20976;-68
2022/06/27 09:47:21;;;;;;;2.10;1.60;;;;;;;40.04;22.31;99596.52;1774543;80;20847;-71
2022/06/27 09:49:51;;;;;;;5.28;1.80;;;;;;;39.44;22.93;99595.02;1767343;80;21114;-70
2022/06/27 09:52:20;;;;;;;3.08;2.65;;;;;;;38.66;23.83;99596.21;1761435;80;20882;-71
2022/06/27 09:54:49;;;;;;;2.65;1.80;;;;;;;38.46;24.61;99596.61;1765781;78;20929;-71
2022/06/27 09:57:16;;;;;;;3.30;1.50;;;;;;;39.49;23.70;99602.52;1802448;78;20968;-69
2022/06/27 09:59:45;;;;;;;1.52;1.42;;;;;;;40.41;21.61;99595.58;1783379;80;21599;-69
2022/06/27 10:02:16;;;;;;;1.92;1.65;;;;;;;41.33;20.83;99592.68;1792765;79;21178;-70
2022/06/27 10:04:43;;;;;;;4.35;1.50;;;;;;;41.79;19.96;99592.09;1772247;80;20985;-72
2022/06/27 10:07:11;;;;;;;6.70;1.67;;;;;;;40.71;21.27;99588.27;1769840;80;21385;-69
2022/06/27 10:09:40;;;;;;;2.83;1.30;;;;;;;38.73;23.64;99591.66;1774575;79;20850;-71
2022/06/27 10:12:32;;;;;;;3.60;1.47;;;;;;;37.24;25.20;99588.61;1775932;78;20905;-72
2022/06/27 10:15:16;;;;;;;2.42;1.55;;;;;;;36.73;26.08;99583.83;1804424;78;21135;-69
2022/06/27 10:17:50;;;;;;;3.55;1.70;;;;;;;36.46;26.38;99589.33;1761355;80;20961;-71
2022/06/27 10:20:28;;;;;;;1.87;1.40;;;;;;;35.54;27.14;99581.28;1783531;80;21549;-71
2022/06/27 10:23:19;;;;;;;2.70;1.60;;;;;;;35.02;28.09;99585.52;1756605;80;20890;-69
2022/06/27 10:25:47;;;;;;;2.15;1.60;;;;;;;34.61;27.95;99582.50;1761520;80;20937;-69
2022/06/27 10:28:16;;;;;;;1.80;1.70;;;;;;;34.20;29.42;99582.13;1761425;80;21228;-71
2022/06/27 10:30:53;;;;;;;1.60;1.50;;;;;;;33.87;29.60;99579.77;1783411;80;20944;-69
2022/06/27 10:33:28;;;;;;;5.30;1.77;;;;;;;33.70;30.01;99579.73;1779335;80;20960;-69
2022/06/27 10:36:11;;;;;;;1.62;1.50;;;;;;;33.47;30.86;99578.98;1744735;81;20946;-73
2022/06/27 10:38:50;;;;;;;2.08;1.60;;;;;;;33.39;31.14;99579.75;1766427;79;20847;-69
2022/06/27 10:41:28;;;;;;;2.98;1.82;;;;;;;33.55;30.82;99581.52;1777109;79;21137;-68
2022/06/27 10:43:56;;;;;;;4.08;1.55;;;;;;;33.72;31.03;99578.02;1732810;81;20887;-70
2022/06/27 10:46:29;;;;;;;4.55;1.45;;;;;;;33.59;31.02;99581.70;1732589;81;20989;-71
2022/06/27 10:48:57;;;;;;;4.15;1.90;;;;;;;33.31;31.12;99577.77;1732396;81;20934;-69
2022/06/27 10:51:33;;;;;;;3.60;1.50;;;;;;;33.00;31.60;99576.92;1761627;81;20916;-70
2022/06/27 10:54:10;;;;;;;1.77;1.67;;;;;;;32.84;31.62;99569.61;1732502;81;21732;-70
2022/06/27 10:56:42;;;;;;;2.15;1.60;;;;;;;32.81;32.29;99573.55;1732257;81;20990;-68
2022/06/27 10:59:20;;;;;;;1.60;1.50;;;;;;;32.76;32.53;99574.50;1751482;81;20857;-71
2022/06/27 11:01:58;;;;;;;4.15;1.70;;;;;;;32.84;32.34;99568.23;1768036;79;20973;-71
2022/06/27 11:04:30;;;;;;;3.02;1.70;;;;;;;33.01;31.93;99563.96;1732494;81;20883;-70
2022/06/27 11:07:00;;;;;;;5.03;1.70;;;;;;;33.11;31.37;99564.54;1732343;81;21857;-70
2022/06/27 11:09:46;;;;;;;2.33;1.52;;;;;;;33.05;31.40;99561.66;1732355;81;20891;-70
2022/06/27 11:12:18;;;;;;;4.83;2.15;;;;;;;32.88;31.78;99568.39;1732374;81;21540;-71
2022/06/27 11:14:49;;;;;;;1.82;1.65;;;;;;;32.60;32.10;99566.35;1756550;81;21592;-72
2022/06/27 11:17:40;;;;;;;2.42;1.65;;;;;;;32.41;32.32;99563.52;1735154;81;20985;-70
2022/06/27 11:20:29;;;;;;;1.57;1.47;;;;;;;32.34;32.60;99558.42;1738881;80;21202;-71
2022/06/27 11:22:58;;;;;;;2.62;1.47;;;;;;;32.38;31.96;99560.23;1755164;81;20904;-69
2022/06/27 11:25:27;;;;;;;5.20;1.75;;;;;;;32.36;31.75;99560.30;1741823;81;20994;-70
2022/06/27 11:31:57;;;;;;;6.05;1.85;;;;;;;32.29;31.66;99561.30;1732500;81;20943;-69
2022/06/27 11:33:25;;;;;;;2.87;1.80;;;;;;;32.00;33.08;99553.98;1766392;80;21881;-72
2022/06/27 11:35:53;;;;;;;4.55;1.70;;;;;;;32.01;32.79;99553.69;1769177;80;20961;-68
2022/06/27 11:38:28;;;;;;;2.65;1.55;;;;;;;32.10;33.17;99544.11;1759483;80;21423;-69
2022/06/27 11:41:08;;;;;;;3.15;1.60;;;;;;;32.17;32.71;99545.90;1759323;80;21431;-70
2022/06/27 11:44:02;;;;;;;3.10;1.80;;;;;;;32.16;31.93;99548.39;1767547;80;20980;-70
2022/06/27 11:46:39;;;;;;;1.80;1.70;;;;;;;32.08;31.86;99538.94;1785733;80;21224;-69
2022/06/27 11:49:14;;;;;;;3.50;1.70;;;;;;;31.86;32.05;99540.80;1773795;80;20881;-69
2022/06/27 11:51:49;;;;;;;2.12;1.57;;;;;;;31.59;32.48;99541.64;1759387;80;20862;-69